createdAt,value
2017-10-22T00:02:03.029Z,13.60
2017-10-22T00:04:31.277Z,14.43
2017-10-22T00:06:58.721Z,18.07
2017-10-22T00:09:26.175Z,15.87
2017-10-22T00:11:53.648Z,14.53
2017-10-22T00:14:21.100Z,12.57
2017-10-22T00:16:48.540Z,15.20
2017-10-22T00:19:16.285Z,17.63
2017-10-22T00:21:43.733Z,12.93
2017-10-22T00:24:11.178Z,15.90
2017-10-22T00:26:39.432Z,15.97
2017-10-22T00:29:06.881Z,19.37
2017-10-22T00:31:34.348Z,16.53
2017-10-22T00:34:01.822Z,15.20
2017-10-22T00:36:30.032Z,17.50
2017-10-22T00:38:57.472Z,17.83
2017-10-22T00:41:24.965Z,15.00
2017-10-22T00:43:52.400Z,13.10
2017-10-22T00:46:19.844Z,17.80
2017-10-22T00:48:47.316Z,19.57
2017-10-22T00:51:14.756Z,17.10
2017-10-22T00:53:42.202Z,14.47
2017-10-22T00:56:10.440Z,16.73
2017-10-22T00:58:37.885Z,14.10
2017-10-22T01:01:05.342Z,17.73
2017-10-22T01:03:32.814Z,14.03
2017-10-22T01:06:00.264Z,18.43
2017-10-22T01:08:27.708Z,14.07
2017-10-22T01:10:55.188Z,15.33
2017-10-22T01:13:22.633Z,14.43
2017-10-22T01:15:50.080Z,16.63
2017-10-22T01:18:17.557Z,19.33
2017-10-22T01:20:45.005Z,17.80
2017-10-22T01:23:12.448Z,18.27
2017-10-22T01:25:39.932Z,19.93
2017-10-22T01:28:07.376Z,17.40
2017-10-22T01:30:34.850Z,18.13
2017-10-22T01:33:02.313Z,18.63
2017-10-22T01:35:29.759Z,17.27
2017-10-22T01:37:57.200Z,17.40
2017-10-22T01:40:24.664Z,18.87
2017-10-22T01:42:52.112Z,17.33
2017-10-22T01:45:19.582Z,24.40
2017-10-22T01:47:47.053Z,16.33
2017-10-22T01:50:14.497Z,19.43
2017-10-22T01:52:41.943Z,16.13
2017-10-22T01:55:09.437Z,14.63
2017-10-22T01:57:36.876Z,20.77
2017-10-22T02:00:04.324Z,17.30
2017-10-22T02:02:31.795Z,17.30
2017-10-22T02:04:59.237Z,15.90
2017-10-22T02:07:26.984Z,18.80
2017-10-22T02:09:54.452Z,19.97
2017-10-22T02:12:21.900Z,17.07
2017-10-22T02:14:49.348Z,17.90
2017-10-22T02:17:16.813Z,23.63
2017-10-22T02:19:44.271Z,20.20
2017-10-22T02:22:11.717Z,18.73
2017-10-22T02:24:39.185Z,21.47
2017-10-22T02:27:06.642Z,17.90
2017-10-22T02:29:34.108Z,19.70
2017-10-22T02:32:01.553Z,24.40
2017-10-22T02:34:29.008Z,17.77
2017-10-22T02:36:56.486Z,17.40
2017-10-22T02:39:23.934Z,16.70
2017-10-22T02:41:51.380Z,20.37
2017-10-22T02:44:18.848Z,16.40
2017-10-22T02:46:46.293Z,19.63
2017-10-22T02:49:13.748Z,16.13
2017-10-22T02:51:41.220Z,20.07
2017-10-22T02:54:08.662Z,16.53
2017-10-22T02:56:36.105Z,19.43
2017-10-22T02:59:04.338Z,16.67
2017-10-22T03:01:31.784Z,14.57
2017-10-22T03:03:59.229Z,19.40
2017-10-22T03:06:26.701Z,19.90
2017-10-22T03:08:54.140Z,14.53
2017-10-22T03:11:21.593Z,18.03
2017-10-22T03:13:49.069Z,15.20
2017-10-22T03:16:16.821Z,18.70
2017-10-22T03:18:44.265Z,16.83
2017-10-22T03:21:11.737Z,15.73
2017-10-22T03:23:39.189Z,18.57
2017-10-22T03:26:06.632Z,18.13
2017-10-22T03:28:34.109Z,17.57
2017-10-22T03:31:02.342Z,21.70
2017-10-22T03:33:29.784Z,14.17
2017-10-22T03:35:57.265Z,14.97
2017-10-22T03:38:25.684Z,14.63
2017-10-22T03:40:53.138Z,16.63
2017-10-22T03:43:20.599Z,15.63
2017-10-22T03:45:48.065Z,16.00
2017-10-22T03:48:15.508Z,13.07
2017-10-22T03:50:42.969Z,11.40
2017-10-22T03:53:10.443Z,11.57
2017-10-22T03:55:37.889Z,13.40
2017-10-22T03:58:05.336Z,11.90
2017-10-22T04:00:32.795Z,11.27
2017-10-22T04:03:00.237Z,11.50
2017-10-22T04:05:27.679Z,11.27
2017-10-22T04:07:55.924Z,11.10
2017-10-22T04:10:23.357Z,12.13
2017-10-22T04:12:50.795Z,12.13
2017-10-22T04:15:18.256Z,9.73
2017-10-22T04:17:45.692Z,9.10
2017-10-22T04:20:13.896Z,10.47
2017-10-22T04:22:41.373Z,9.60
2017-10-22T04:25:08.814Z,9.93
2017-10-22T04:27:36.259Z,11.43
2017-10-22T04:30:03.733Z,11.63
2017-10-22T04:32:31.172Z,10.53
2017-10-22T04:34:58.612Z,9.03
2017-10-22T04:37:26.853Z,11.40
2017-10-22T04:39:54.301Z,8.63
2017-10-22T04:42:21.740Z,10.83
2017-10-22T04:44:49.209Z,12.70
2017-10-22T04:47:16.654Z,9.33
2017-10-22T04:49:44.122Z,8.40
2017-10-22T04:52:11.577Z,8.57
2017-10-22T04:54:39.012Z,12.20
2017-10-22T04:57:06.697Z,7.90
2017-10-22T04:59:34.141Z,7.80
2017-10-22T05:02:01.576Z,8.23
2017-10-22T05:04:29.045Z,7.40
2017-10-22T05:06:56.482Z,7.40
2017-10-22T05:09:24.697Z,8.03
2017-10-22T05:11:52.169Z,10.40
2017-10-22T05:14:19.610Z,10.23
2017-10-22T05:16:47.370Z,9.50
2017-10-22T05:19:14.834Z,9.77
2017-10-22T05:21:42.271Z,8.60
2017-10-22T05:24:09.713Z,7.30
2017-10-22T05:26:37.957Z,16.50
2017-10-22T05:29:05.400Z,9.63
2017-10-22T05:31:32.849Z,9.83
2017-10-22T05:34:00.309Z,10.13
2017-10-22T05:36:27.757Z,10.60
2017-10-22T05:38:55.201Z,16.53
2017-10-22T05:41:22.680Z,7.20
2017-10-22T05:43:50.118Z,9.50
2017-10-22T05:46:17.553Z,7.87
2017-10-22T05:48:45.027Z,10.73
2017-10-22T05:51:12.470Z,11.03
2017-10-22T05:53:40.681Z,8.20
2017-10-22T05:56:08.147Z,8.57
2017-10-22T05:58:35.585Z,7.20
2017-10-22T06:01:03.026Z,8.23
2017-10-22T06:03:30.496Z,9.27
2017-10-22T06:05:57.939Z,8.73
2017-10-22T06:08:25.384Z,7.83
2017-10-22T06:10:53.612Z,9.03
2017-10-22T06:13:21.052Z,9.60
2017-10-22T06:15:48.812Z,8.47
2017-10-22T06:18:16.285Z,10.43
2017-10-22T06:20:43.729Z,9.03
2017-10-22T06:23:11.709Z,8.20
2017-10-22T06:25:39.181Z,8.07
2017-10-22T06:28:06.613Z,14.30
2017-10-22T06:30:34.057Z,6.83
2017-10-22T06:33:01.536Z,9.07
2017-10-22T06:35:28.981Z,8.90
2017-10-22T06:37:56.425Z,9.20
2017-10-22T06:40:23.893Z,7.50
2017-10-22T06:42:51.336Z,7.93
2017-10-22T06:45:18.782Z,8.50
2017-10-22T06:47:47.416Z,10.00
2017-10-22T06:50:14.857Z,6.97
2017-10-22T06:52:42.315Z,7.40
2017-10-22T06:55:09.769Z,8.53
2017-10-22T06:57:37.212Z,9.20
2017-10-22T07:00:04.686Z,7.90
2017-10-22T07:02:32.138Z,9.90
2017-10-22T07:04:59.574Z,7.47
2017-10-22T07:07:27.803Z,6.13
2017-10-22T07:09:55.240Z,8.30
2017-10-22T07:12:23.472Z,7.43
2017-10-22T07:14:51.716Z,6.57
2017-10-22T07:17:19.158Z,5.77
2017-10-22T07:19:46.583Z,9.23
2017-10-22T07:22:14.110Z,6.60
2017-10-22T07:24:42.324Z,6.07
2017-10-22T07:27:09.829Z,7.37
2017-10-22T07:29:37.313Z,7.23
2017-10-22T07:32:05.518Z,6.80
2017-10-22T07:34:33.768Z,6.33
2017-10-22T07:37:02.039Z,12.07
2017-10-22T07:39:29.468Z,5.20
2017-10-22T07:41:56.904Z,4.77
2017-10-22T07:44:24.376Z,7.80
2017-10-22T07:46:51.816Z,5.33
2017-10-22T07:49:19.262Z,8.27
2017-10-22T07:51:46.721Z,7.13
2017-10-22T07:54:14.162Z,7.43
2017-10-22T07:56:41.629Z,7.00
2017-10-22T07:59:09.088Z,7.60
2017-10-22T08:01:36.559Z,6.83
2017-10-22T08:04:04.763Z,7.93
2017-10-22T08:06:32.217Z,11.40
2017-10-22T08:08:59.648Z,4.83
2017-10-22T08:11:27.908Z,6.63
2017-10-22T08:13:55.345Z,7.53
2017-10-22T08:16:23.944Z,4.97
2017-10-22T08:18:51.413Z,10.00
2017-10-22T08:21:18.857Z,6.30
2017-10-22T08:23:47.076Z,10.80
2017-10-22T08:26:14.537Z,8.67
2017-10-22T08:28:42.745Z,6.33
2017-10-22T08:31:10.985Z,3.90
2017-10-22T08:33:38.425Z,6.43
2017-10-22T08:36:05.865Z,7.57
2017-10-22T08:38:34.096Z,4.70
2017-10-22T08:41:01.540Z,4.53
2017-10-22T08:43:28.984Z,8.07
2017-10-22T08:45:56.452Z,4.37
2017-10-22T08:48:24.601Z,3.97
2017-10-22T08:50:52.037Z,5.20
2017-10-22T08:53:19.527Z,6.97
2017-10-22T08:55:47.008Z,5.90
2017-10-22T08:58:14.456Z,5.60
2017-10-22T09:00:41.949Z,6.83
2017-10-22T09:03:09.528Z,5.13
2017-10-22T09:05:37.732Z,6.47
2017-10-22T09:08:05.244Z,7.33
2017-10-22T09:10:33.477Z,10.20
2017-10-22T09:13:00.920Z,5.03
2017-10-22T09:15:28.396Z,6.57
2017-10-22T09:17:55.856Z,11.77
2017-10-22T09:20:23.343Z,3.53
2017-10-22T09:22:50.797Z,7.90
2017-10-22T09:25:18.236Z,3.90
2017-10-22T09:27:45.697Z,3.97
2017-10-22T09:30:16.881Z,4.73
2017-10-22T09:32:43.242Z,3.93
2017-10-22T09:35:10.705Z,6.10
2017-10-22T09:37:39.039Z,3.77
2017-10-22T09:42:40.468Z,5.63
2017-10-22T09:45:07.965Z,4.73
2017-10-22T09:47:36.192Z,5.90
2017-10-22T09:50:03.645Z,8.53
2017-10-22T09:52:31.109Z,5.50
2017-10-22T09:54:58.590Z,7.63
2017-10-22T09:57:26.020Z,5.70
2017-10-22T09:59:53.464Z,9.03
2017-10-22T10:02:20.937Z,5.63
2017-10-22T10:04:48.416Z,4.80
2017-10-22T10:07:16.658Z,5.10
2017-10-22T10:09:44.421Z,3.60
2017-10-22T10:12:11.879Z,4.23
2017-10-22T10:14:39.320Z,4.63
2017-10-22T10:17:06.788Z,4.87
2017-10-22T10:19:34.232Z,5.87
2017-10-22T10:22:01.673Z,3.57
2017-10-22T10:24:29.918Z,7.97
2017-10-22T10:26:57.370Z,4.03
2017-10-22T10:29:24.796Z,4.40
2017-10-22T10:31:52.264Z,7.57
2017-10-22T10:34:19.714Z,8.97
2017-10-22T10:36:47.481Z,10.50
2017-10-22T10:39:14.949Z,6.70
2017-10-22T10:41:42.408Z,5.30
2017-10-22T10:44:10.846Z,4.30
2017-10-22T10:46:39.076Z,4.27
2017-10-22T10:49:06.524Z,5.50
2017-10-22T10:51:33.975Z,5.80
2017-10-22T10:54:01.447Z,6.80
2017-10-22T10:56:28.893Z,5.80
2017-10-22T10:58:56.328Z,3.67
2017-10-22T11:01:23.792Z,4.30
2017-10-22T11:03:51.237Z,3.57
2017-10-22T11:06:18.681Z,4.73
2017-10-22T11:08:46.925Z,4.80
2017-10-22T11:11:14.361Z,8.80
2017-10-22T11:13:41.809Z,2.67
2017-10-22T11:16:09.277Z,8.03
2017-10-22T11:18:36.721Z,3.03
2017-10-22T11:21:04.187Z,4.40
2017-10-22T11:23:31.697Z,6.47
2017-10-22T11:25:59.900Z,5.30
2017-10-22T11:28:27.341Z,4.03
2017-10-22T11:30:55.583Z,6.23
2017-10-22T11:33:23.175Z,4.13
2017-10-22T11:35:50.762Z,3.00
2017-10-22T11:38:18.298Z,4.90
2017-10-22T11:40:46.533Z,3.27
2017-10-22T11:43:14.741Z,4.87
2017-10-22T11:45:43.071Z,4.80
2017-10-22T11:48:10.517Z,5.43
2017-10-22T11:50:38.550Z,7.77
2017-10-22T11:53:07.248Z,5.13
2017-10-22T11:55:34.724Z,3.47
2017-10-22T11:58:02.169Z,5.90
2017-10-22T12:00:29.614Z,18.70
2017-10-22T12:02:58.053Z,5.07
2017-10-22T12:05:25.496Z,3.23
2017-10-22T12:07:52.937Z,6.40
2017-10-22T12:10:20.440Z,4.90
2017-10-22T12:12:47.880Z,6.07
2017-10-22T12:15:15.326Z,7.37
2017-10-22T12:17:42.795Z,7.20
2017-10-22T12:20:10.245Z,4.50
2017-10-22T12:22:37.681Z,10.47
2017-10-22T12:25:05.163Z,6.80
2017-10-22T12:27:32.604Z,8.00
2017-10-22T12:30:00.074Z,7.60
2017-10-22T12:32:28.285Z,9.20
2017-10-22T12:34:55.745Z,7.63
2017-10-22T12:37:23.212Z,5.60
2017-10-22T12:39:51.461Z,8.90
2017-10-22T12:42:18.904Z,13.40
2017-10-22T12:44:46.377Z,3.00
2017-10-22T12:47:13.821Z,10.27
2017-10-22T12:49:41.263Z,5.67
2017-10-22T12:52:08.744Z,7.40
2017-10-22T12:54:37.053Z,7.43
2017-10-22T12:57:05.284Z,4.50
2017-10-22T12:59:32.766Z,6.30
2017-10-22T13:02:00.231Z,6.83
2017-10-22T13:04:27.669Z,4.20
2017-10-22T13:06:55.912Z,6.00
2017-10-22T13:09:23.340Z,9.27
2017-10-22T13:11:51.546Z,5.00
2017-10-22T13:14:19.022Z,9.90
2017-10-22T13:16:46.462Z,5.90
2017-10-22T13:19:13.901Z,6.00
2017-10-22T13:21:41.373Z,7.33
2017-10-22T13:24:08.816Z,5.23
2017-10-22T13:26:36.353Z,15.20
2017-10-22T13:29:04.818Z,5.57
2017-10-22T13:31:32.249Z,4.67
2017-10-22T13:34:01.373Z,7.10
2017-10-22T13:36:28.814Z,4.00
2017-10-22T13:38:56.265Z,7.20
2017-10-22T13:41:23.736Z,6.23
2017-10-22T13:43:51.180Z,3.23
2017-10-22T13:46:18.649Z,4.43
2017-10-22T13:48:46.097Z,3.53
2017-10-22T13:51:13.565Z,4.37
2017-10-22T13:53:41.009Z,5.50
2017-10-22T13:56:08.464Z,4.10
2017-10-22T13:58:35.944Z,5.77
2017-10-22T14:01:03.364Z,4.70
2017-10-22T14:03:30.808Z,3.73
2017-10-22T14:05:58.280Z,5.07
2017-10-22T14:08:25.721Z,3.03
2017-10-22T14:10:53.168Z,3.03
2017-10-22T14:13:21.396Z,4.23
2017-10-22T14:15:48.881Z,3.80
2017-10-22T14:18:17.098Z,2.50
2017-10-22T14:20:44.560Z,4.70
2017-10-22T14:23:12.821Z,3.27
2017-10-22T14:25:40.259Z,3.87
2017-10-22T14:28:08.493Z,3.50
2017-10-22T14:30:36.709Z,2.60
2017-10-22T14:33:04.916Z,2.80
2017-10-22T14:35:32.389Z,6.07
2017-10-22T14:37:59.815Z,3.20
2017-10-22T14:40:27.261Z,5.00
2017-10-22T14:42:55.488Z,3.97
2017-10-22T14:45:22.934Z,3.03
2017-10-22T14:47:50.393Z,3.10
2017-10-22T14:50:17.829Z,4.63
2017-10-22T14:52:45.269Z,7.13
2017-10-22T14:55:12.741Z,10.97
2017-10-22T14:57:40.197Z,8.20
2017-10-22T15:00:08.494Z,3.17
2017-10-22T15:02:35.993Z,7.60
2017-10-22T15:05:04.742Z,4.67
2017-10-22T15:07:32.163Z,6.70
2017-10-22T15:10:00.393Z,7.20
2017-10-22T15:12:27.844Z,6.07
2017-10-22T15:14:55.334Z,4.40
2017-10-22T15:17:22.788Z,5.73
2017-10-22T15:19:50.224Z,4.20
2017-10-22T15:22:17.708Z,3.53
2017-10-22T15:24:45.154Z,6.00
2017-10-22T15:27:12.592Z,5.50
2017-10-22T15:29:40.063Z,9.97
2017-10-22T15:32:07.569Z,5.27
2017-10-22T15:34:35.698Z,9.87
2017-10-22T15:37:03.968Z,7.50
2017-10-22T15:39:32.157Z,7.97
2017-10-22T15:41:59.598Z,6.00
2017-10-22T15:44:27.077Z,7.57
2017-10-22T15:46:54.511Z,6.40
2017-10-22T15:49:21.942Z,7.37
2017-10-22T15:51:49.426Z,6.00
2017-10-22T15:54:17.746Z,6.13
2017-10-22T15:56:45.232Z,10.40
2017-10-22T15:59:12.674Z,8.63
2017-10-22T16:01:40.144Z,4.10
2017-10-22T16:04:07.704Z,7.27
2017-10-22T16:06:35.157Z,8.37
2017-10-22T16:09:03.370Z,5.17
2017-10-22T16:11:31.616Z,4.20
2017-10-22T16:13:59.213Z,6.77
2017-10-22T16:16:26.657Z,7.00
2017-10-22T16:18:54.153Z,7.40
2017-10-22T16:21:22.362Z,3.20
2017-10-22T16:23:49.827Z,5.60
2017-10-22T16:26:17.277Z,7.50
2017-10-22T16:28:44.720Z,7.50
2017-10-22T16:31:12.182Z,4.87
2017-10-22T16:33:39.861Z,9.83
2017-10-22T16:36:07.308Z,8.83
2017-10-22T16:38:34.763Z,3.00
2017-10-22T16:41:02.541Z,3.33
2017-10-22T16:43:29.978Z,7.80
2017-10-22T16:45:57.417Z,7.03
2017-10-22T16:48:25.653Z,5.67
2017-10-22T16:50:53.097Z,4.60
2017-10-22T16:53:20.541Z,5.10
2017-10-22T16:55:48.016Z,5.03
2017-10-22T16:58:15.453Z,4.30
2017-10-22T17:00:42.894Z,5.93
2017-10-22T17:03:11.147Z,7.53
2017-10-22T17:05:38.597Z,8.73
2017-10-22T17:08:06.033Z,5.17
2017-10-22T17:10:33.571Z,6.37
2017-10-22T17:13:01.028Z,6.40
2017-10-22T17:15:28.508Z,5.63
2017-10-22T17:17:55.952Z,4.93
2017-10-22T17:20:26.184Z,2.93
2017-10-22T17:22:54.033Z,5.20
2017-10-22T17:25:21.483Z,4.13
2017-10-22T17:27:48.912Z,9.20
2017-10-22T17:30:17.182Z,4.87
2017-10-22T17:32:44.684Z,4.30
2017-10-22T17:35:12.131Z,4.40
2017-10-22T17:37:39.601Z,9.10
2017-10-22T17:40:07.882Z,3.37
2017-10-22T17:42:35.329Z,5.53
2017-10-22T17:45:02.845Z,5.80
2017-10-22T17:47:30.319Z,6.07
2017-10-22T17:49:57.740Z,4.30
2017-10-22T17:52:25.196Z,3.00
2017-10-22T17:54:53.715Z,8.07
2017-10-22T17:57:21.921Z,6.10
2017-10-22T17:59:49.384Z,6.77
2017-10-22T18:02:19.549Z,4.43
2017-10-22T18:04:46.990Z,4.43
2017-10-22T18:07:14.441Z,5.10
2017-10-22T18:09:41.896Z,6.00
2017-10-22T18:12:09.361Z,7.60
2017-10-22T18:14:36.829Z,4.80
2017-10-22T18:17:04.274Z,6.07
2017-10-22T18:19:31.732Z,7.07
2017-10-22T18:21:59.172Z,5.47
2017-10-22T18:24:26.673Z,6.30
2017-10-22T18:26:54.101Z,9.37
2017-10-22T18:29:21.951Z,7.67
2017-10-22T18:31:53.489Z,8.27
2017-10-22T18:34:22.079Z,8.67
2017-10-22T18:36:49.541Z,6.73
2017-10-22T18:39:17.013Z,9.43
2017-10-22T18:41:45.334Z,7.93
2017-10-22T18:44:15.602Z,8.37
2017-10-22T18:46:43.820Z,8.23
2017-10-22T18:49:11.260Z,12.40
2017-10-22T18:51:39.415Z,7.70
2017-10-22T18:54:06.852Z,9.90
2017-10-22T18:56:34.301Z,4.77
2017-10-22T18:59:01.781Z,4.90
2017-10-22T19:01:29.224Z,10.67
2017-10-22T19:03:56.669Z,9.73
2017-10-22T19:06:24.901Z,6.33
2017-10-22T19:08:52.345Z,8.40
2017-10-22T19:11:19.801Z,10.00
2017-10-22T19:13:47.293Z,5.80
2017-10-22T19:16:14.730Z,12.83
2017-10-22T19:18:42.201Z,4.73
2017-10-22T19:21:09.646Z,6.17
2017-10-22T19:23:37.089Z,5.03
2017-10-22T19:26:04.551Z,9.53
2017-10-22T19:28:31.989Z,4.30
2017-10-22T19:30:59.433Z,10.80
2017-10-22T19:33:26.900Z,10.20
2017-10-22T19:35:54.349Z,7.00
2017-10-22T19:38:21.776Z,6.33
2017-10-22T19:40:50.002Z,8.27
2017-10-22T19:43:17.440Z,4.03
2017-10-22T19:45:45.318Z,4.43
2017-10-22T19:48:12.747Z,5.60
2017-10-22T19:50:40.952Z,6.77
2017-10-22T19:53:08.433Z,4.27
2017-10-22T19:55:36.169Z,11.53
2017-10-22T19:58:03.607Z,10.37
2017-10-22T20:00:31.077Z,17.57
2017-10-22T20:02:58.516Z,5.20
2017-10-22T20:05:26.744Z,6.97
2017-10-22T20:07:54.181Z,6.43
2017-10-22T20:10:21.612Z,4.47
2017-10-22T20:12:49.081Z,7.90
2017-10-22T20:15:16.516Z,7.17
2017-10-22T20:17:44.717Z,6.73
2017-10-22T20:20:12.207Z,6.70
2017-10-22T20:22:39.649Z,4.90
2017-10-22T20:25:07.087Z,4.20
2017-10-22T20:27:34.574Z,11.93
2017-10-22T20:30:02.010Z,4.40
2017-10-22T20:32:29.782Z,3.60
2017-10-22T20:34:57.248Z,6.43
2017-10-22T20:37:24.696Z,6.03
2017-10-22T20:39:53.012Z,4.40
2017-10-22T20:42:20.484Z,6.80
2017-10-22T20:44:47.937Z,5.40
2017-10-22T20:47:15.383Z,7.10
2017-10-22T20:49:42.857Z,5.83
2017-10-22T20:52:10.298Z,8.07
2017-10-22T20:54:37.740Z,5.70
2017-10-22T20:57:05.206Z,5.10
2017-10-22T20:59:32.862Z,5.27
2017-10-22T21:02:00.324Z,7.90
2017-10-22T21:04:27.773Z,6.10
2017-10-22T21:06:55.216Z,4.40
2017-10-22T21:09:22.696Z,8.23
2017-10-22T21:11:50.162Z,7.10
2017-10-22T21:14:17.649Z,9.30
2017-10-22T21:16:47.452Z,7.53
2017-10-22T21:19:14.896Z,6.80
2017-10-22T21:21:42.340Z,8.47
2017-10-22T21:24:09.809Z,6.80
2017-10-22T21:26:37.390Z,5.20
2017-10-22T21:29:05.602Z,7.43
2017-10-22T21:31:33.100Z,5.73
2017-10-22T21:34:00.532Z,6.40
2017-10-22T21:36:28.041Z,7.37
2017-10-22T21:38:55.514Z,9.17
2017-10-22T21:41:23.729Z,9.07
2017-10-22T21:43:51.172Z,12.40
2017-10-22T21:46:18.720Z,14.60
2017-10-22T21:48:46.644Z,9.23
2017-10-22T21:51:14.084Z,10.80
2017-10-22T21:53:41.724Z,9.93
2017-10-22T21:56:10.301Z,9.90
2017-10-22T21:58:38.511Z,13.63
2017-10-22T22:01:05.986Z,12.30
2017-10-22T22:03:33.417Z,10.77
2017-10-22T22:06:00.869Z,15.47
2017-10-22T22:08:28.334Z,11.03
2017-10-22T22:10:55.768Z,9.93
2017-10-22T22:13:23.224Z,10.33
2017-10-22T22:15:50.697Z,12.47
2017-10-22T22:18:18.171Z,16.27
2017-10-22T22:20:45.625Z,12.20
2017-10-22T22:23:13.068Z,29.50
2017-10-22T22:25:40.540Z,13.07
2017-10-22T22:28:08.273Z,12.43
2017-10-22T22:30:35.718Z,11.43
2017-10-22T22:33:03.525Z,11.70
2017-10-22T22:35:30.974Z,12.77
2017-10-22T22:37:58.452Z,12.10
2017-10-22T22:40:25.900Z,9.60
2017-10-22T22:42:53.344Z,15.13
2017-10-22T22:45:21.096Z,10.53
2017-10-22T22:47:48.560Z,11.30
2017-10-22T22:50:15.997Z,11.23
2017-10-22T22:52:43.441Z,7.40
2017-10-22T22:55:11.676Z,7.87
2017-10-22T22:57:39.117Z,8.00
2017-10-22T23:00:06.560Z,10.57
2017-10-22T23:02:34.023Z,12.37
2017-10-22T23:05:01.472Z,10.53
2017-10-22T23:07:28.915Z,13.10
2017-10-22T23:09:56.389Z,10.97
2017-10-22T23:12:23.825Z,9.00
2017-10-22T23:14:51.268Z,10.87
2017-10-22T23:17:19.512Z,10.67
2017-10-22T23:19:46.953Z,10.33
2017-10-22T23:22:14.412Z,9.57
2017-10-22T23:24:41.872Z,10.23
2017-10-22T23:27:09.313Z,12.10
2017-10-22T23:29:36.799Z,8.90
2017-10-22T23:32:05.000Z,10.30
2017-10-22T23:34:33.731Z,10.80
2017-10-22T23:37:01.197Z,12.00
2017-10-22T23:39:28.801Z,13.20
2017-10-22T23:41:56.246Z,9.90
2017-10-22T23:44:23.721Z,11.87
2017-10-22T23:46:51.169Z,13.87
2017-10-22T23:49:18.881Z,10.03
2017-10-22T23:51:46.349Z,11.23
2017-10-22T23:54:13.797Z,10.50
2017-10-22T23:56:41.233Z,11.70
2017-10-22T23:59:09.491Z,8.77
